Time;durP1;ratioP1;P1;durP2;ratioP2;P2;SDS_P1;SDS_P2;PMS_P1;PMS_P2;Temp;Humidity;BMP_temperature;BMP_pressure;BME280_temperature;BME280_humidity;BME280_pressure;Samples;Min_cycle;Max_cycle;Signal;HPM_P1;HPM_P2
2023/03/26 00:00:43;;;;;;;10.50;2.38;;;8.20;99.90;;;;;;5053572;28;20048;-72
2023/03/26 00:03:12;;;;;;;15.93;2.80;;;8.20;99.90;;;;;;5053440;28;20467;-71
2023/03/26 00:05:38;;;;;;;15.40;2.97;;;8.20;99.90;;;;;;5052344;28;20033;-72
2023/03/26 00:08:07;;;;;;;14.85;2.63;;;8.20;99.90;;;;;;5068088;28;20036;-72
2023/03/26 00:10:33;;;;;;;14.85;2.63;;;8.10;99.90;;;;;;5073365;28;20094;-72
2023/03/26 00:12:59;;;;;;;9.07;2.20;;;8.10;99.90;;;;;;5073544;28;20036;-71
2023/03/26 00:15:25;;;;;;;14.10;3.13;;;8.10;99.90;;;;;;5055569;28;20041;-71
2023/03/26 00:17:53;;;;;;;13.18;2.70;;;8.00;99.90;;;;;;5072087;28;20166;-71
2023/03/26 00:20:18;;;;;;;18.02;3.17;;;8.00;99.90;;;;;;5056683;28;20483;-72
2023/03/26 00:22:44;;;;;;;14.52;2.40;;;8.00;99.90;;;;;;5056416;28;20083;-71
2023/03/26 00:25:10;;;;;;;18.50;3.33;;;7.90;99.90;;;;;;5071479;28;20035;-71
2023/03/26 00:27:36;;;;;;;10.85;2.70;;;7.90;99.90;;;;;;5066014;28;20036;-71
2023/03/26 00:30:03;;;;;;;14.48;2.55;;;8.00;99.90;;;;;;5056313;28;20036;-72
2023/03/26 00:32:29;;;;;;;15.73;2.70;;;8.00;99.90;;;;;;5072393;28;20052;-71
2023/03/26 00:35:00;;;;;;;17.75;2.40;;;8.00;99.90;;;;;;5053918;28;20036;-71
2023/03/26 00:37:26;;;;;;;13.00;2.45;;;8.00;99.90;;;;;;5050848;28;20037;-72
2023/03/26 00:40:03;;;;;;;12.73;3.30;;;8.00;99.90;;;;;;5051347;28;20500;-71
2023/03/26 00:42:30;;;;;;;14.75;2.95;;;8.00;99.90;;;;;;5073005;28;20369;-71
2023/03/26 00:44:59;;;;;;;16.95;2.88;;;8.00;99.90;;;;;;5056178;28;20041;-71
2023/03/26 00:47:26;;;;;;;15.93;2.92;;;7.90;99.90;;;;;;5051885;28;20056;-71
2023/03/26 00:49:52;;;;;;;12.85;2.65;;;8.00;99.90;;;;;;5052432;28;20114;-72
2023/03/26 00:52:22;;;;;;;10.35;2.70;;;8.00;99.90;;;;;;5052848;28;20052;-71
2023/03/26 00:54:50;;;;;;;12.18;2.45;;;8.00;99.90;;;;;;5052055;28;20033;-71
2023/03/26 00:57:17;;;;;;;16.05;2.40;;;8.10;99.90;;;;;;5046044;28;20064;-71
2023/03/26 00:59:42;;;;;;;11.45;2.72;;;8.10;99.90;;;;;;5056048;28;20048;-71
2023/03/26 01:02:16;;;;;;;10.18;2.20;;;8.00;99.90;;;;;;5055744;28;20044;-71
2023/03/26 01:04:46;;;;;;;14.70;2.60;;;8.00;99.90;;;;;;5054548;28;20497;-71
2023/03/26 01:07:18;;;;;;;11.05;2.20;;;8.00;99.90;;;;;;5061031;28;20072;-71
2023/03/26 01:09:49;;;;;;;13.50;4.15;;;8.00;99.90;;;;;;5072333;28;20123;-71
2023/03/26 01:12:18;;;;;;;13.82;2.35;;;8.00;99.90;;;;;;5072195;28;20040;-71
2023/03/26 01:14:45;;;;;;;13.70;2.72;;;7.90;99.90;;;;;;5054364;28;20037;-71
2023/03/26 01:17:11;;;;;;;14.30;2.58;;;8.00;99.90;;;;;;5050723;28;20075;-71
2023/03/26 01:19:56;;;;;;;13.88;2.50;;;7.90;99.90;;;;;;5052376;28;20086;-71
2023/03/26 01:22:26;;;;;;;13.27;2.17;;;7.80;99.90;;;;;;5058379;28;20037;-71
2023/03/26 01:24:52;;;;;;;15.85;3.50;;;7.90;99.90;;;;;;5072022;28;20492;-71
2023/03/26 01:27:32;;;;;;;13.85;2.78;;;7.80;99.90;;;;;;5069501;28;20050;-72
2023/03/26 01:30:25;;;;;;;15.38;2.20;;;7.80;99.90;;;;;;5072092;28;20040;-72
2023/03/26 01:33:03;;;;;;;11.60;2.60;;;7.80;99.90;;;;;;5061452;28;20051;-71
2023/03/26 01:35:44;;;;;;;11.05;2.42;;;7.80;99.90;;;;;;5051289;28;20128;-72
2023/03/26 01:38:34;;;;;;;12.00;2.20;;;7.90;99.90;;;;;;5067270;28;20046;-71
2023/03/26 01:41:09;;;;;;;14.85;2.92;;;7.90;99.90;;;;;;5055156;28;20040;-71
2023/03/26 01:43:40;;;;;;;10.13;2.10;;;7.80;99.90;;;;;;5070602;28;20123;-71
2023/03/26 01:46:10;;;;;;;19.38;3.60;;;7.80;99.90;;;;;;5092692;28;20040;-71
2023/03/26 01:48:38;;;;;;;8.90;1.75;;;7.90;99.90;;;;;;5054874;28;20037;-72
2023/03/26 01:51:05;;;;;;;18.77;3.00;;;7.80;99.90;;;;;;5051683;28;20049;-72
2023/03/26 01:53:33;;;;;;;12.23;2.60;;;7.80;99.90;;;;;;5035151;28;20130;-71
2023/03/26 01:56:22;;;;;;;14.38;3.08;;;7.80;99.90;;;;;;5038814;28;20049;-71
2023/03/26 01:59:07;;;;;;;10.65;2.30;;;7.80;99.90;;;;;;5065958;28;20041;-71
2023/03/26 02:01:59;;;;;;;16.25;2.53;;;7.80;99.90;;;;;;5035350;28;20067;-71
2023/03/26 02:04:31;;;;;;;;;;;7.80;99.90;;;;;;5052045;28;20050;-71
2023/03/26 02:07:11;;;;;;;10.68;2.22;;;7.80;99.90;;;;;;5047790;28;19927;-71
2023/03/26 02:09:48;;;;;;;11.68;2.60;;;7.80;99.90;;;;;;5051486;28;20067;-71
2023/03/26 02:12:15;;;;;;;13.23;2.88;;;7.90;99.90;;;;;;5066838;28;20078;-71
2023/03/26 02:14:41;;;;;;;13.85;3.13;;;7.80;99.90;;;;;;5070401;28;20374;-72
2023/03/26 02:17:09;;;;;;;15.15;3.97;;;7.90;99.90;;;;;;5051039;28;20040;-71
2023/03/26 02:19:36;;;;;;;12.68;2.25;;;7.80;99.90;;;;;;5051675;28;20064;-71
2023/03/26 02:22:01;;;;;;;9.63;2.40;;;7.80;99.90;;;;;;5051761;28;20401;-71
2023/03/26 02:24:27;;;;;;;12.55;2.80;;;7.80;99.90;;;;;;5051433;28;20041;-71
2023/03/26 02:26:53;;;;;;;10.25;2.03;;;7.90;99.90;;;;;;5052970;28;20076;-71
2023/03/26 02:29:19;;;;;;;13.88;2.58;;;7.80;99.90;;;;;;5054607;28;20048;-71
2023/03/26 02:31:48;;;;;;;8.35;2.60;;;7.80;99.90;;;;;;5050862;28;20082;-72
2023/03/26 02:34:15;;;;;;;14.32;2.67;;;7.70;99.90;;;;;;5048773;28;20398;-71
2023/03/26 02:36:41;;;;;;;11.20;2.53;;;7.80;99.90;;;;;;5052520;28;20411;-71
2023/03/26 02:39:09;;;;;;;12.02;2.47;;;7.70;99.90;;;;;;5068902;28;20041;-71
2023/03/26 02:41:36;;;;;;;14.90;2.85;;;7.80;99.90;;;;;;5052143;28;20044;-71
2023/03/26 02:44:04;;;;;;;12.23;2.35;;;7.80;99.90;;;;;;5059117;28;20392;-72
2023/03/26 02:46:30;;;;;;;13.70;2.28;;;7.80;99.90;;;;;;5068488;28;20048;-71
2023/03/26 02:48:55;;;;;;;10.15;2.28;;;7.80;99.90;;;;;;5059925;28;20028;-71
2023/03/26 02:51:21;;;;;;;13.05;2.55;;;7.80;99.90;;;;;;5060502;28;20053;-72
2023/03/26 02:53:46;;;;;;;14.82;2.38;;;7.70;99.90;;;;;;5066493;28;20036;-71
2023/03/26 02:56:12;;;;;;;12.00;2.63;;;7.70;99.90;;;;;;5051600;28;20068;-71
2023/03/26 02:58:37;;;;;;;12.73;2.35;;;7.70;99.90;;;;;;5067085;28;20904;-71
2023/03/26 03:01:04;;;;;;;12.30;2.50;;;7.60;99.90;;;;;;5053786;28;20033;-71
2023/03/26 03:03:30;;;;;;;17.45;2.70;;;7.70;99.90;;;;;;5062151;28;20090;-71
2023/03/26 03:05:56;;;;;;;13.50;2.40;;;7.60;99.90;;;;;;5053878;28;20033;-71
2023/03/26 03:08:25;;;;;;;14.02;2.72;;;7.60;99.90;;;;;;5065498;28;20041;-71
2023/03/26 03:10:59;;;;;;;14.30;2.50;;;7.60;99.90;;;;;;5051618;28;20037;-71
2023/03/26 03:13:24;;;;;;;15.32;2.55;;;7.50;99.90;;;;;;5067668;28;20044;-71
2023/03/26 03:15:50;;;;;;;13.20;2.58;;;7.60;99.90;;;;;;5061847;28;20055;-71
2023/03/26 03:18:19;;;;;;;12.25;2.70;;;7.60;99.90;;;;;;5042845;28;20497;-71
2023/03/26 03:20:45;;;;;;;13.05;2.75;;;7.60;99.90;;;;;;5066424;28;20036;-71
2023/03/26 03:23:11;;;;;;;13.73;2.60;;;7.60;99.90;;;;;;5048334;28;20033;-71
2023/03/26 03:25:37;;;;;;;13.27;2.58;;;7.60;99.90;;;;;;5066268;28;20033;-71
2023/03/26 03:28:03;;;;;;;13.35;2.50;;;7.60;99.90;;;;;;5071923;28;20085;-71
2023/03/26 03:30:29;;;;;;;8.70;2.10;;;7.60;99.90;;;;;;5055676;28;20041;-71
2023/03/26 03:32:57;;;;;;;11.75;2.30;;;7.60;99.90;;;;;;5042388;28;20085;-71
2023/03/26 03:35:23;;;;;;;13.02;2.63;;;7.60;99.90;;;;;;5073158;28;20045;-71
2023/03/26 03:37:49;;;;;;;9.10;2.75;;;7.60;99.90;;;;;;5072218;28;20040;-71
2023/03/26 03:40:15;;;;;;;8.43;2.28;;;7.60;99.90;;;;;;5072802;28;20044;-71
2023/03/26 03:42:41;;;;;;;10.50;3.08;;;7.60;99.90;;;;;;5048088;28;20033;-71
2023/03/26 03:45:07;;;;;;;13.82;3.40;;;7.60;99.90;;;;;;5052829;28;20045;-71
2023/03/26 03:47:33;;;;;;;12.98;2.50;;;7.60;99.90;;;;;;5071279;28;20040;-71
2023/03/26 03:49:59;;;;;;;8.45;2.88;;;7.60;99.90;;;;;;5053784;28;20512;-71
2023/03/26 03:52:26;;;;;;;10.45;2.40;;;7.60;99.90;;;;;;5064564;28;20108;-72
2023/03/26 03:54:53;;;;;;;10.90;2.25;;;7.60;99.90;;;;;;5054102;28;20039;-71
2023/03/26 03:57:20;;;;;;;10.35;2.17;;;7.70;99.90;;;;;;5053820;28;20051;-71
2023/03/26 03:59:46;;;;;;;13.07;2.40;;;7.70;99.90;;;;;;5062100;28;20488;-71
2023/03/26 04:02:12;;;;;;;9.57;2.15;;;7.60;99.90;;;;;;5042536;28;20090;-71
2023/03/26 04:04:38;;;;;;;9.13;2.45;;;7.70;99.90;;;;;;5048170;28;20041;-71
2023/03/26 04:07:05;;;;;;;12.25;1.98;;;7.70;99.90;;;;;;5049372;28;20486;-71
2023/03/26 04:09:31;;;;;;;9.15;2.40;;;7.70;99.90;;;;;;5052359;28;20036;-71
2023/03/26 04:11:56;;;;;;;8.98;2.17;;;7.70;99.90;;;;;;5064759;28;20496;-71
2023/03/26 04:14:22;;;;;;;11.43;3.30;;;7.70;99.90;;;;;;5043743;28;20090;-71
2023/03/26 04:16:48;;;;;;;10.40;1.95;;;7.70;99.90;;;;;;5052663;28;20037;-71
2023/03/26 04:19:14;;;;;;;13.65;2.58;;;7.70;99.90;;;;;;5071190;28;20502;-71
2023/03/26 04:21:41;;;;;;;10.88;2.25;;;7.70;99.90;;;;;;5072361;28;20079;-72
2023/03/26 04:24:08;;;;;;;8.80;2.30;;;7.70;99.90;;;;;;5054229;28;20056;-71
2023/03/26 04:26:34;;;;;;;8.50;1.88;;;7.60;99.90;;;;;;5052255;28;20048;-72
2023/03/26 04:29:03;;;;;;;11.65;2.20;;;7.60;99.90;;;;;;5064551;28;20493;-71
2023/03/26 04:31:29;;;;;;;12.43;2.20;;;7.70;99.90;;;;;;5066943;28;20224;-71
2023/03/26 04:34:22;;;;;;;10.93;2.75;;;7.60;99.90;;;;;;5064246;28;20041;-71
2023/03/26 04:36:50;;;;;;;14.57;2.42;;;7.50;99.90;;;;;;5044356;28;20044;-71
2023/03/26 04:39:16;;;;;;;11.13;2.22;;;7.50;99.90;;;;;;5045803;28;20043;-71
2023/03/26 04:41:41;;;;;;;11.77;2.38;;;7.50;99.90;;;;;;5059567;28;20041;-71
2023/03/26 04:44:07;;;;;;;16.58;2.83;;;7.50;99.90;;;;;;5046785;28;20404;-71
2023/03/26 04:46:33;;;;;;;11.73;2.67;;;7.50;99.90;;;;;;5050037;28;20095;-71
2023/03/26 04:49:00;;;;;;;15.57;2.97;;;7.40;99.90;;;;;;5053043;28;20439;-71
2023/03/26 04:51:36;;;;;;;12.77;2.33;;;7.50;99.90;;;;;;5047450;28;20049;-71
2023/03/26 04:54:04;;;;;;;9.05;2.28;;;7.50;99.90;;;;;;5062949;28;20103;-71
2023/03/26 04:56:42;;;;;;;9.80;2.15;;;7.40;99.90;;;;;;5051357;28;20485;-71
2023/03/26 04:59:13;;;;;;;7.10;2.00;;;7.30;99.90;;;;;;5052677;28;20099;-71
2023/03/26 05:01:40;;;;;;;10.70;2.60;;;7.20;99.90;;;;;;5059125;28;20400;-71
2023/03/26 05:04:06;;;;;;;10.48;2.47;;;7.20;99.90;;;;;;5035332;28;20041;-71
2023/03/26 05:06:33;;;;;;;13.57;2.40;;;7.20;99.90;;;;;;5053289;28;20037;-71
2023/03/26 05:09:00;;;;;;;10.27;2.20;;;7.20;99.90;;;;;;5051199;28;20085;-71
2023/03/26 05:11:26;;;;;;;11.25;2.40;;;7.10;99.90;;;;;;5044331;28;20040;-71
2023/03/26 05:13:52;;;;;;;9.18;2.17;;;7.10;99.90;;;;;;5054098;28;20036;-71
2023/03/26 05:16:17;;;;;;;11.57;2.25;;;7.10;99.90;;;;;;5066373;28;20047;-71
2023/03/26 05:18:43;;;;;;;12.13;2.08;;;7.10;99.90;;;;;;5049262;28;20037;-72
2023/03/26 05:21:09;;;;;;;11.63;1.88;;;7.20;99.90;;;;;;5051720;28;20033;-71
2023/03/26 05:23:35;;;;;;;12.50;2.05;;;7.10;99.90;;;;;;5071526;28;20045;-71
2023/03/26 05:26:01;;;;;;;6.55;1.75;;;7.10;99.90;;;;;;5062207;28;20413;-71
2023/03/26 05:28:27;;;;;;;12.18;2.40;;;7.10;99.90;;;;;;5048024;28;21285;-72
2023/03/26 05:30:53;;;;;;;11.57;2.15;;;7.10;99.90;;;;;;5062514;28;20037;-71
2023/03/26 05:33:20;;;;;;;11.90;3.47;;;7.10;99.90;;;;;;5053806;28;20489;-71
2023/03/26 05:35:45;;;;;;;10.73;1.98;;;7.10;99.90;;;;;;5061576;28;20033;-71
2023/03/26 05:38:11;;;;;;;8.90;2.00;;;7.10;99.90;;;;;;5054283;28;20468;-71
2023/03/26 05:40:37;;;;;;;11.55;2.20;;;7.10;99.90;;;;;;5065747;28;20540;-71
2023/03/26 05:43:03;;;;;;;10.50;2.25;;;7.10;99.90;;;;;;5049214;28;20033;-71
2023/03/26 05:45:29;;;;;;;14.50;2.55;;;7.10;99.90;;;;;;5043034;28;20897;-71
2023/03/26 05:47:55;;;;;;;12.70;2.10;;;7.10;99.90;;;;;;5070086;28;20033;-71
2023/03/26 05:50:21;;;;;;;7.05;1.92;;;7.10;99.90;;;;;;5054385;28;20103;-71
2023/03/26 05:52:47;;;;;;;12.38;2.72;;;7.00;99.90;;;;;;5051816;28;20037;-71
2023/03/26 05:55:12;;;;;;;10.77;1.85;;;7.00;99.90;;;;;;5068860;28;20153;-72
2023/03/26 05:57:39;;;;;;;12.52;2.40;;;7.10;99.90;;;;;;5045370;28;20428;-71
2023/03/26 06:00:07;;;;;;;13.23;2.78;;;7.00;99.90;;;;;;5070263;28;20082;-71
2023/03/26 06:02:33;;;;;;;12.25;2.45;;;7.10;99.90;;;;;;5067325;28;20041;-71
2023/03/26 06:05:00;;;;;;;9.35;1.83;;;7.10;99.90;;;;;;5062442;28;20068;-71
2023/03/26 06:07:25;;;;;;;13.85;2.60;;;7.10;99.90;;;;;;5044728;28;20041;-71
2023/03/26 06:09:52;;;;;;;12.45;2.42;;;7.10;99.90;;;;;;5065681;28;20028;-71
2023/03/26 06:12:17;;;;;;;13.68;2.25;;;7.10;99.90;;;;;;5051757;28;20390;-72
2023/03/26 06:14:44;;;;;;;11.50;2.45;;;7.10;99.90;;;;;;5059464;28;20033;-71
2023/03/26 06:17:10;;;;;;;13.07;2.60;;;7.10;99.90;;;;;;5059631;28;20496;-71
2023/03/26 06:19:36;;;;;;;12.85;2.80;;;7.10;99.90;;;;;;5067700;28;20127;-72
2023/03/26 06:22:02;;;;;;;18.63;2.95;;;7.10;99.90;;;;;;5065529;28;20051;-71
2023/03/26 06:24:28;;;;;;;10.77;2.10;;;7.10;99.90;;;;;;5059066;28;20056;-71
2023/03/26 06:26:53;;;;;;;14.48;3.03;;;7.10;99.90;;;;;;5055691;28;20052;-71
2023/03/26 06:29:19;;;;;;;15.18;2.20;;;7.10;99.90;;;;;;5028639;28;20555;-72
2023/03/26 06:31:45;;;;;;;16.48;2.95;;;7.20;99.90;;;;;;5058615;28;20397;-72
2023/03/26 06:34:10;;;;;;;16.42;2.75;;;7.20;99.90;;;;;;5067609;28;20059;-71
2023/03/26 06:36:36;;;;;;;11.23;2.92;;;7.20;99.90;;;;;;5056891;28;20381;-71
2023/03/26 06:39:02;;;;;;;11.80;2.45;;;7.20;99.90;;;;;;5048084;28;20064;-71
2023/03/26 06:41:28;;;;;;;17.40;2.47;;;7.30;99.90;;;;;;5061613;28;20037;-72
2023/03/26 06:43:54;;;;;;;12.70;5.00;;;7.30;99.90;;;;;;5068464;28;20065;-71
2023/03/26 06:46:22;;;;;;;18.27;4.53;;;7.30;99.90;;;;;;5044439;28;20064;-71
2023/03/26 06:48:47;;;;;;;13.20;2.17;;;7.30;99.90;;;;;;5049449;28;20071;-72
2023/03/26 06:51:13;;;;;;;17.08;2.72;;;7.30;99.90;;;;;;5070524;28;20134;-71
2023/03/26 06:53:39;;;;;;;10.57;2.20;;;7.30;99.90;;;;;;5065086;28;20040;-71
2023/03/26 06:56:05;;;;;;;13.80;2.40;;;7.30;99.90;;;;;;5061962;28;20037;-72
2023/03/26 06:58:30;;;;;;;12.75;3.22;;;7.30;99.90;;;;;;5047777;28;20044;-71
2023/03/26 07:00:57;;;;;;;14.60;2.58;;;7.30;99.90;;;;;;5057180;28;20560;-71
2023/03/26 07:03:23;;;;;;;19.00;2.55;;;7.40;99.90;;;;;;5068636;28;20127;-71
2023/03/26 07:05:48;;;;;;;13.13;2.67;;;7.50;99.90;;;;;;5054242;28;20044;-71
2023/03/26 07:08:15;;;;;;;13.20;2.60;;;7.40;99.90;;;;;;5059760;28;20092;-71
2023/03/26 07:10:41;;;;;;;12.45;2.45;;;7.50;99.90;;;;;;5063556;28;20052;-71
2023/03/26 07:13:06;;;;;;;15.73;2.35;;;7.60;99.90;;;;;;5053540;28;20037;-71
2023/03/26 07:15:32;;;;;;;16.52;2.30;;;7.60;99.90;;;;;;5071022;28;20044;-71
2023/03/26 07:17:58;;;;;;;18.25;3.00;;;7.50;99.90;;;;;;5057625;28;20067;-71
2023/03/26 07:20:24;;;;;;;14.65;2.75;;;7.50;99.90;;;;;;5065549;28;20040;-71
2023/03/26 07:22:50;;;;;;;17.40;2.78;;;7.50;99.90;;;;;;5071472;28;20044;-71
2023/03/26 07:25:17;;;;;;;12.90;2.55;;;7.50;99.90;;;;;;5041318;28;20105;-71
2023/03/26 07:27:52;;;;;;;15.50;3.13;;;7.50;99.90;;;;;;5056112;28;20044;-71
2023/03/26 07:30:47;;;;;;;19.35;2.15;;;7.60;99.90;;;;;;5036771;28;20405;-71
2023/03/26 07:33:46;;;;;;;13.00;2.40;;;7.50;99.90;;;;;;5057211;28;20070;-71
2023/03/26 07:36:17;;;;;;;11.60;2.22;;;7.50;99.90;;;;;;5055876;28;20040;-71
2023/03/26 07:39:12;;;;;;;10.50;2.23;;;7.40;99.90;;;;;;5060269;28;20145;-71
2023/03/26 07:41:41;;;;;;;11.20;2.20;;;7.50;99.90;;;;;;5072430;28;20040;-71
2023/03/26 07:44:29;;;;;;;16.50;2.30;;;7.60;99.90;;;;;;5049876;28;20147;-71
2023/03/26 07:46:56;;;;;;;10.75;1.75;;;7.50;99.90;;;;;;5061186;28;20132;-71
2023/03/26 07:49:22;;;;;;;14.77;2.55;;;7.50;99.90;;;;;;5047773;28;20446;-71
2023/03/26 07:51:48;;;;;;;16.90;2.50;;;7.60;99.90;;;;;;5058851;28;20040;-72
2023/03/26 07:54:14;;;;;;;10.95;2.30;;;7.60;99.90;;;;;;5052243;28;20041;-71
2023/03/26 07:56:52;;;;;;;14.95;2.50;;;7.80;99.90;;;;;;5066165;28;20054;-71
2023/03/26 07:59:27;;;;;;;15.02;2.20;;;7.70;99.90;;;;;;5086033;28;20045;-72
2023/03/26 08:02:27;;;;;;;12.48;2.00;;;7.60;99.90;;;;;;5054157;28;20400;-72
2023/03/26 08:05:18;;;;;;;15.05;2.63;;;7.80;99.90;;;;;;5055476;28;20485;-71
2023/03/26 08:07:57;;;;;;;11.43;1.88;;;7.80;99.90;;;;;;5054340;28;20048;-71
2023/03/26 08:10:32;;;;;;;12.52;2.35;;;7.70;99.90;;;;;;5069919;28;20444;-72
2023/03/26 08:13:21;;;;;;;13.63;2.45;;;7.70;99.90;;;;;;5054603;28;20037;-71
2023/03/26 08:16:06;;;;;;;13.07;1.88;;;7.90;99.90;;;;;;5052211;28;20037;-71
2023/03/26 08:18:48;;;;;;;10.55;2.20;;;7.90;99.90;;;;;;5040640;28;20041;-72
2023/03/26 08:21:35;;;;;;;9.32;1.85;;;8.00;99.90;;;;;;5065467;28;20119;-71
2023/03/26 08:24:09;;;;;;;11.60;2.10;;;7.90;99.90;;;;;;5071966;28;20388;-71
2023/03/26 08:26:43;;;;;;;11.20;3.15;;;8.00;99.90;;;;;;5041203;28;20499;-71
2023/03/26 08:29:19;;;;;;;11.38;2.22;;;7.90;99.90;;;;;;5049509;28;20033;-71
2023/03/26 08:31:47;;;;;;;11.18;1.88;;;7.80;99.90;;;;;;5087038;28;20505;-71
2023/03/26 08:34:13;;;;;;;14.57;2.33;;;8.00;99.90;;;;;;5072240;28;20090;-71
2023/03/26 08:36:39;;;;;;;15.35;2.45;;;8.00;99.90;;;;;;5058880;28;20115;-71
2023/03/26 08:39:05;;;;;;;10.07;1.92;;;8.00;99.90;;;;;;5035471;28;20040;-71
2023/03/26 08:41:55;;;;;;;10.55;1.88;;;8.10;99.90;;;;;;5060963;28;20052;-72
2023/03/26 08:45:02;;;;;;;13.40;1.95;;;8.20;99.90;;;;;;5066410;28;21079;-71
2023/03/26 08:47:37;;;;;;;12.63;2.30;;;8.10;99.90;;;;;;5071917;28;20489;-72
2023/03/26 08:50:40;;;;;;;12.52;2.10;;;8.10;99.90;;;;;;5054454;28;20069;-72
2023/03/26 08:53:44;;;;;;;11.57;2.17;;;8.30;99.90;;;;;;5050364;28;20048;-72
2023/03/26 08:56:41;;;;;;;12.27;2.45;;;8.20;99.90;;;;;;5048917;28;20083;-73
2023/03/26 08:59:52;;;;;;;15.93;2.53;;;8.20;99.90;;;;;;5055094;28;20489;-70
2023/03/26 09:02:45;;;;;;;14.77;2.65;;;8.20;99.90;;;;;;5043785;28;20147;-74
2023/03/26 09:05:35;;;;;;;10.68;2.45;;;8.20;99.90;;;;;;5054520;28;20045;-73
2023/03/26 09:08:19;;;;;;;13.93;2.08;;;8.30;99.90;;;;;;5044748;28;20115;-76
2023/03/26 09:11:20;;;;;;;14.43;2.28;;;8.30;99.90;;;;;;5051933;28;20041;-71
2023/03/26 09:14:13;;;;;;;13.82;2.30;;;8.30;99.90;;;;;;5051424;28;20037;-72
2023/03/26 09:16:44;;;;;;;9.60;2.40;;;8.30;99.90;;;;;;5051882;28;20045;-72
2023/03/26 09:19:24;;;;;;;12.57;1.90;;;8.30;99.90;;;;;;5051840;28;20040;-72
2023/03/26 09:22:21;;;;;;;12.95;2.22;;;8.30;99.90;;;;;;5065327;28;20041;-71
2023/03/26 09:25:13;;;;;;;14.73;2.30;;;8.30;99.90;;;;;;5045570;28;20052;-72
2023/03/26 09:28:15;;;;;;;10.48;2.22;;;8.30;99.90;;;;;;5063609;28;20515;-72
2023/03/26 09:30:46;;;;;;;13.20;2.47;;;8.20;99.90;;;;;;5034926;28;20136;-72
2023/03/26 09:33:15;;;;;;;10.52;2.30;;;8.20;99.90;;;;;;5052180;28;20370;-72
2023/03/26 09:35:59;;;;;;;10.57;2.03;;;8.40;99.90;;;;;;5051226;28;20080;-72
2023/03/26 09:38:28;;;;;;;16.02;2.15;;;8.50;99.90;;;;;;5057916;28;20052;-72
2023/03/26 09:41:02;;;;;;;13.30;2.20;;;8.60;99.90;;;;;;5055136;28;20043;-72
2023/03/26 09:43:59;;;;;;;12.07;2.25;;;8.60;99.90;;;;;;5071428;28;20504;-72
2023/03/26 09:46:43;;;;;;;12.60;2.50;;;8.70;99.90;;;;;;5070314;28;20127;-71
2023/03/26 09:49:31;;;;;;;10.98;1.92;;;8.70;99.90;;;;;;5048392;28;20039;-71
2023/03/26 09:52:29;;;;;;;16.48;2.33;;;8.60;99.90;;;;;;5048714;28;20390;-71
2023/03/26 09:55:05;;;;;;;13.93;2.20;;;8.70;99.90;;;;;;5066970;28;20044;-71
2023/03/26 09:57:57;;;;;;;12.07;2.22;;;8.60;99.90;;;;;;5067257;28;20048;-71
2023/03/26 10:01:04;;;;;;;11.88;2.67;;;8.70;99.90;;;;;;5054657;28;20445;-71
2023/03/26 10:03:52;;;;;;;19.05;3.03;;;8.70;99.90;;;;;;5051118;28;20045;-71
2023/03/26 10:06:29;;;;;;;11.30;2.22;;;8.80;99.90;;;;;;5083845;28;20424;-71
2023/03/26 10:09:03;;;;;;;15.07;2.55;;;8.80;99.90;;;;;;5056624;28;20058;-71
2023/03/26 10:11:50;;;;;;;11.88;2.03;;;8.80;99.90;;;;;;5050067;28;20037;-71
2023/03/26 10:14:45;;;;;;;12.02;1.98;;;8.80;99.90;;;;;;5067972;28;20086;-71
2023/03/26 10:17:36;;;;;;;14.80;2.65;;;8.80;99.90;;;;;;5069340;28;20036;-71
2023/03/26 10:20:16;;;;;;;10.25;2.03;;;8.80;99.90;;;;;;5066194;28;20420;-71
2023/03/26 10:22:54;;;;;;;10.80;2.00;;;9.00;99.90;;;;;;5068492;28;20041;-71
2023/03/26 10:25:39;;;;;;;10.40;1.95;;;8.90;99.90;;;;;;5067314;28;20044;-71
2023/03/26 10:28:38;;;;;;;11.00;1.90;;;8.80;99.90;;;;;;5055928;28;20040;-71
2023/03/26 10:31:25;;;;;;;11.93;2.65;;;8.80;99.90;;;;;;5068814;28;20029;-72
2023/03/26 10:34:21;;;;;;;14.35;2.83;;;8.80;99.90;;;;;;5054936;28;20552;-71
2023/03/26 10:37:19;;;;;;;10.10;2.00;;;8.80;99.90;;;;;;5061668;28;20077;-71
2023/03/26 10:39:54;;;;;;;10.88;2.05;;;8.70;99.90;;;;;;5062442;28;20068;-72
2023/03/26 10:42:39;;;;;;;8.57;1.88;;;8.70;99.90;;;;;;5060343;28;20033;-72
2023/03/26 10:45:27;;;;;;;15.77;3.05;;;8.80;99.90;;;;;;5040960;28;20037;-72
2023/03/26 10:48:20;;;;;;;17.08;3.03;;;8.80;99.90;;;;;;5042536;28;20404;-72
2023/03/26 10:50:51;;;;;;;11.35;2.58;;;8.80;99.90;;;;;;5054729;28;20061;-72
2023/03/26 10:53:40;;;;;;;12.73;2.00;;;8.90;99.90;;;;;;5046478;28;20128;-71
2023/03/26 10:56:20;;;;;;;14.73;2.45;;;8.80;99.90;;;;;;5043653;28;20144;-72
2023/03/26 10:58:46;;;;;;;13.88;3.42;;;8.70;99.90;;;;;;5058099;28;20488;-72
2023/03/26 11:01:26;;;;;;;10.90;2.30;;;8.80;99.90;;;;;;5055407;28;20033;-71
2023/03/26 11:03:54;;;;;;;11.50;2.80;;;8.70;99.90;;;;;;5053706;28;20135;-71
2023/03/26 11:06:37;;;;;;;9.82;2.03;;;8.60;99.90;;;;;;5068135;28;20123;-72
2023/03/26 11:09:12;;;;;;;8.98;1.80;;;8.60;99.90;;;;;;5052475;28;20385;-72
2023/03/26 11:12:03;;;;;;;15.50;2.42;;;8.60;99.90;;;;;;5056364;28;20040;-72
2023/03/26 11:15:15;;;;;;;9.82;2.03;;;8.60;99.90;;;;;;5052309;28;20055;-71
2023/03/26 11:18:20;;;;;;;14.75;2.22;;;8.50;99.90;;;;;;5052433;28;20044;-71
2023/03/26 11:21:00;;;;;;;14.73;1.77;;;8.60;99.90;;;;;;5046560;28;20058;-71
2023/03/26 11:23:39;;;;;;;10.25;2.05;;;8.60;99.90;;;;;;5069701;28;20444;-72
2023/03/26 11:26:13;;;;;;;15.18;4.30;;;8.70;99.90;;;;;;5102679;28;20063;-72
2023/03/26 11:29:05;;;;;;;14.68;2.50;;;8.80;99.90;;;;;;5039639;28;20094;-71
2023/03/26 11:32:03;;;;;;;13.50;1.92;;;8.80;99.90;;;;;;5064812;28;20041;-72
2023/03/26 11:34:47;;;;;;;11.00;2.28;;;8.70;99.90;;;;;;5047800;28;20055;-72
2023/03/26 11:37:22;;;;;;;6.80;1.73;;;8.60;99.90;;;;;;5051765;28;20040;-71
2023/03/26 11:39:51;;;;;;;13.88;3.22;;;8.60;99.90;;;;;;5067658;28;20076;-71
2023/03/26 11:42:21;;;;;;;12.65;2.58;;;8.60;99.90;;;;;;5054848;28;20040;-72
2023/03/26 11:44:50;;;;;;;10.07;1.80;;;8.60;99.90;;;;;;5057244;28;20036;-71
2023/03/26 11:47:22;;;;;;;11.57;2.10;;;8.50;99.90;;;;;;5073836;28;20044;-71
2023/03/26 11:49:50;;;;;;;12.13;2.13;;;8.60;99.90;;;;;;5052414;28;20037;-72
2023/03/26 11:52:15;;;;;;;11.32;2.55;;;8.70;99.90;;;;;;5069831;28;20057;-71
2023/03/26 11:54:42;;;;;;;14.23;2.45;;;8.80;99.90;;;;;;5049765;28;20040;-71
2023/03/26 11:57:24;;;;;;;11.10;2.38;;;8.80;99.90;;;;;;5073503;28;20067;-71
2023/03/26 12:00:03;;;;;;;;;;;8.70;99.90;;;;;;5072355;28;20063;-72
2023/03/26 12:02:38;;;;;;;12.32;2.40;;;8.60;99.90;;;;;;5056791;28;20032;-71
2023/03/26 12:05:14;;;;;;;10.93;2.10;;;8.70;99.90;;;;;;5055371;28;20090;-71
2023/03/26 12:08:12;;;;;;;16.52;2.03;;;8.70;99.90;;;;;;5056423;28;20051;-71
2023/03/26 12:10:41;;;;;;;10.88;2.10;;;8.80;99.90;;;;;;5072608;28;20052;-71
2023/03/26 12:13:25;;;;;;;11.95;2.03;;;8.80;99.90;;;;;;5071247;28;20533;-71
2023/03/26 12:15:57;;;;;;;13.60;2.80;;;8.80;99.90;;;;;;5056207;28;20047;-70
2023/03/26 12:18:25;;;;;;;8.35;1.70;;;8.80;99.90;;;;;;5069570;28;20093;-71
2023/03/26 12:21:03;;;;;;;13.80;2.25;;;8.80;99.90;;;;;;5036072;28;20077;-71
2023/03/26 12:23:42;;;;;;;7.18;1.50;;;8.80;99.90;;;;;;5053375;28;20033;-71
2023/03/26 12:26:17;;;;;;;10.02;1.80;;;8.90;99.90;;;;;;5036096;28;20037;-71
2023/03/26 12:28:45;;;;;;;10.48;1.67;;;9.00;99.90;;;;;;5052043;28;20435;-71
2023/03/26 12:31:17;;;;;;;14.18;3.15;;;9.20;99.90;;;;;;5053178;28;20049;-71
2023/03/26 12:34:03;;;;;;;11.38;1.60;;;9.20;99.90;;;;;;5052947;28;20128;-71
2023/03/26 12:36:32;;;;;;;9.85;1.50;;;9.00;99.90;;;;;;5058626;28;20079;-71
2023/03/26 12:38:57;;;;;;;7.85;1.50;;;9.00;99.90;;;;;;5052438;28;20052;-71
2023/03/26 12:41:39;;;;;;;11.93;1.77;;;8.90;99.90;;;;;;5052998;28;20400;-71
2023/03/26 12:44:31;;;;;;;9.18;1.83;;;8.80;99.90;;;;;;5055176;28;20041;-71
2023/03/26 12:47:12;;;;;;;11.77;1.90;;;8.90;99.90;;;;;;5036067;28;20046;-71
2023/03/26 12:49:37;;;;;;;8.85;1.80;;;8.80;99.90;;;;;;5052151;28;20033;-71
2023/03/26 12:52:24;;;;;;;11.57;2.03;;;8.70;99.90;;;;;;5052217;28;20382;-72
2023/03/26 12:55:16;;;;;;;12.05;2.13;;;8.70;99.90;;;;;;5044538;28;20032;-72
2023/03/26 12:58:13;;;;;;;8.45;1.95;;;8.60;99.90;;;;;;5072639;28;20044;-72
2023/03/26 13:00:48;;;;;;;6.72;1.30;;;8.70;99.90;;;;;;5059034;28;20045;-72
2023/03/26 13:03:37;;;;;;;8.95;1.75;;;8.70;99.90;;;;;;5052125;28;20047;-72
2023/03/26 13:06:28;;;;;;;12.10;1.80;;;8.80;99.90;;;;;;5051841;28;20045;-72
2023/03/26 13:09:01;;;;;;;13.57;1.88;;;9.10;99.90;;;;;;5042018;28;20029;-72
2023/03/26 13:12:01;;;;;;;9.52;1.83;;;9.20;99.90;;;;;;5066940;28;20063;-72
2023/03/26 13:14:32;;;;;;;9.43;1.77;;;9.20;99.90;;;;;;5072011;28;20389;-72
2023/03/26 13:17:07;;;;;;;9.07;2.03;;;9.10;99.90;;;;;;5069900;28;20040;-72
2023/03/26 13:19:58;;;;;;;13.02;1.67;;;9.00;99.90;;;;;;5053940;28;20127;-72
2023/03/26 13:22:39;;;;;;;11.05;1.60;;;9.00;99.90;;;;;;5055449;28;20066;-72